createdAt,value
2019-03-06T00:02:12.064Z,100.00
2019-03-06T00:04:41.664Z,100.00
2019-03-06T00:07:11.398Z,100.00
2019-03-06T00:09:41.478Z,100.00
2019-03-06T00:12:11.313Z,100.00
2019-03-06T00:14:41.343Z,100.00
2019-03-06T00:17:11.312Z,100.00
2019-03-06T00:19:41.044Z,100.00
2019-03-06T00:22:10.966Z,100.00
2019-03-06T00:24:40.662Z,100.00
2019-03-06T00:27:10.362Z,100.00
2019-03-06T00:29:40.005Z,100.00
2019-03-06T00:32:09.748Z,100.00
2019-03-06T00:34:39.390Z,100.00
2019-03-06T00:37:09.113Z,100.00
2019-03-06T00:39:45.535Z,100.00
2019-03-06T00:42:15.219Z,100.00
2019-03-06T00:44:44.865Z,100.00
2019-03-06T00:47:14.475Z,100.00
2019-03-06T00:49:44.065Z,100.00
2019-03-06T00:52:13.788Z,100.00
2019-03-06T00:54:43.445Z,100.00
2019-03-06T00:57:13.051Z,100.00
2019-03-06T00:59:42.763Z,100.00
2019-03-06T01:02:12.411Z,100.00
2019-03-06T01:04:42.075Z,100.00
2019-03-06T01:07:11.888Z,100.00
2019-03-06T01:09:41.501Z,100.00
2019-03-06T01:12:11.377Z,100.00
2019-03-06T01:14:41.019Z,100.00
2019-03-06T01:17:10.627Z,99.05
2019-03-06T01:19:40.288Z,97.64
2019-03-06T01:22:09.907Z,100.00
2019-03-06T01:24:39.633Z,100.00
2019-03-06T01:27:09.247Z,100.00
2019-03-06T01:29:38.970Z,100.00
2019-03-06T01:32:08.766Z,100.00
2019-03-06T01:35:04.556Z,100.00
2019-03-06T01:37:59.458Z,100.00
2019-03-06T01:40:50.787Z,100.00
2019-03-06T01:43:26.068Z,100.00
2019-03-06T01:45:56.144Z,100.00
2019-03-06T01:48:25.973Z,100.00
2019-03-06T01:50:55.638Z,100.00
2019-03-06T01:53:25.266Z,100.00
2019-03-06T01:55:55.027Z,100.00
2019-03-06T01:58:24.898Z,100.00
2019-03-06T02:00:55.222Z,100.00
2019-03-06T02:03:25.015Z,100.00
2019-03-06T02:05:54.909Z,100.00
2019-03-06T02:08:24.634Z,100.00
2019-03-06T02:10:54.370Z,100.00
2019-03-06T02:13:24.729Z,100.00
2019-03-06T02:15:54.368Z,100.00
2019-03-06T02:18:23.985Z,100.00
2019-03-06T02:20:53.609Z,100.00
2019-03-06T02:23:23.208Z,100.00
2019-03-06T02:25:52.960Z,100.00
2019-03-06T02:28:22.551Z,100.00
2019-03-06T02:30:52.270Z,100.00
2019-03-06T02:33:22.184Z,100.00
2019-03-06T02:35:51.885Z,100.00
2019-03-06T02:38:21.548Z,100.00
2019-03-06T02:40:51.180Z,99.89
2019-03-06T02:43:20.844Z,96.39
2019-03-06T02:45:50.694Z,96.41
2019-03-06T02:48:20.370Z,94.86
2019-03-06T02:50:50.117Z,94.35
2019-03-06T02:53:19.754Z,93.76
2019-03-06T02:55:49.387Z,93.05
2019-03-06T02:58:29.188Z,92.95
2019-03-06T03:01:29.737Z,93.56
2019-03-06T03:04:13.781Z,93.56
2019-03-06T03:06:46.745Z,92.64
2019-03-06T03:09:20.538Z,91.36
2019-03-06T03:11:50.188Z,91.16
2019-03-06T03:14:19.793Z,88.31
2019-03-06T03:16:49.389Z,85.65
2019-03-06T03:19:19.092Z,85.44
2019-03-06T03:21:48.753Z,81.27
2019-03-06T03:24:18.428Z,82.76
2019-03-06T03:26:48.134Z,81.23
2019-03-06T03:29:17.733Z,84.59
2019-03-06T03:31:47.504Z,85.57
2019-03-06T03:34:17.139Z,91.30
2019-03-06T03:36:46.874Z,90.46
2019-03-06T03:39:16.495Z,88.69
2019-03-06T03:41:46.152Z,85.96
2019-03-06T03:44:15.766Z,81.93
2019-03-06T03:46:45.363Z,82.77
2019-03-06T03:49:14.982Z,85.20
2019-03-06T03:51:44.599Z,84.67
2019-03-06T03:54:14.342Z,85.80
2019-03-06T03:56:43.950Z,87.32
2019-03-06T03:59:13.644Z,83.38
2019-03-06T04:01:43.668Z,82.49
2019-03-06T04:04:13.445Z,83.06
2019-03-06T04:09:11.410Z,85.78
2019-03-06T04:11:41.021Z,84.02
2019-03-06T04:14:10.643Z,84.12
2019-03-06T04:16:40.330Z,83.37
2019-03-06T04:19:09.924Z,83.80
2019-03-06T04:21:39.540Z,81.80
2019-03-06T04:24:09.479Z,80.49
2019-03-06T04:26:39.127Z,80.02
2019-03-06T04:29:08.734Z,80.13
2019-03-06T04:31:38.427Z,79.88
2019-03-06T04:34:08.055Z,80.35
2019-03-06T04:36:37.763Z,83.49
2019-03-06T04:39:07.811Z,85.91
2019-03-06T04:41:37.418Z,87.79
2019-03-06T04:44:06.980Z,85.57
2019-03-06T04:46:36.632Z,80.27
2019-03-06T04:49:06.237Z,81.22
2019-03-06T04:51:36.194Z,82.58
2019-03-06T04:54:05.824Z,89.80
2019-03-06T04:56:35.464Z,89.20
2019-03-06T04:59:05.191Z,100.00
2019-03-06T05:01:34.881Z,98.93
2019-03-06T05:04:04.774Z,100.00
2019-03-06T05:06:34.534Z,99.58
2019-03-06T05:09:04.808Z,100.00
2019-03-06T05:11:34.427Z,100.00
2019-03-06T05:14:04.027Z,100.00
2019-03-06T05:16:57.380Z,99.62
2019-03-06T05:19:27.114Z,97.81
2019-03-06T05:21:56.755Z,100.00
2019-03-06T05:24:26.333Z,97.91
2019-03-06T05:26:56.033Z,93.31
2019-03-06T05:29:25.866Z,88.88
2019-03-06T05:32:29.122Z,84.99
2019-03-06T05:35:00.344Z,77.64
2019-03-06T05:38:12.868Z,91.77
2019-03-06T05:40:42.697Z,85.05
2019-03-06T05:43:12.496Z,79.37
2019-03-06T05:45:43.342Z,81.23
2019-03-06T05:48:13.075Z,81.18
2019-03-06T05:50:42.761Z,88.61
2019-03-06T05:53:12.449Z,94.91
2019-03-06T05:55:42.059Z,94.60
2019-03-06T05:58:11.851Z,96.29
2019-03-06T06:00:47.461Z,96.36
2019-03-06T06:03:18.453Z,94.45
2019-03-06T06:05:48.390Z,89.98
2019-03-06T06:08:19.847Z,87.48
2019-03-06T06:10:52.341Z,77.80
2019-03-06T06:13:24.265Z,79.63
2019-03-06T06:15:54.649Z,81.06
2019-03-06T06:19:11.286Z,76.35
2019-03-06T06:21:59.406Z,75.85
2019-03-06T06:24:31.546Z,76.48
2019-03-06T06:27:02.720Z,80.57
2019-03-06T06:29:34.928Z,78.18
2019-03-06T06:32:05.359Z,73.24
2019-03-06T06:34:37.262Z,68.89
2019-03-06T06:37:09.662Z,74.09
2019-03-06T06:39:39.890Z,73.32
2019-03-06T06:42:09.650Z,70.64
2019-03-06T06:44:39.316Z,76.03
2019-03-06T06:47:08.930Z,75.89
2019-03-06T06:49:38.765Z,69.88
2019-03-06T06:52:42.069Z,82.02
2019-03-06T06:55:32.214Z,81.07
2019-03-06T06:58:37.556Z,81.14
2019-03-06T07:01:59.150Z,84.74
2019-03-06T07:05:11.196Z,82.48
2019-03-06T07:08:05.772Z,83.57
2019-03-06T07:11:09.443Z,91.20
2019-03-06T07:14:16.361Z,88.05
2019-03-06T07:16:59.082Z,77.29
2019-03-06T07:19:47.694Z,83.78
2019-03-06T07:22:54.618Z,86.22
2019-03-06T07:25:38.837Z,80.90
2019-03-06T07:28:19.187Z,74.58
2019-03-06T07:31:06.475Z,74.91
2019-03-06T07:33:53.477Z,81.23
2019-03-06T07:36:41.948Z,77.21
2019-03-06T07:39:29.247Z,70.42
2019-03-06T07:42:35.986Z,72.14
2019-03-06T07:46:05.739Z,81.60
2019-03-06T07:48:48.165Z,72.73
2019-03-06T07:51:35.455Z,71.23
2019-03-06T07:54:30.810Z,72.79
2019-03-06T07:57:14.240Z,66.81
2019-03-06T07:59:44.193Z,67.94
2019-03-06T08:02:19.384Z,74.18
2019-03-06T08:04:53.610Z,72.10
2019-03-06T08:07:23.413Z,72.92
2019-03-06T08:09:53.284Z,76.83
2019-03-06T08:12:31.613Z,82.64
2019-03-06T08:15:32.264Z,83.98
2019-03-06T08:18:19.540Z,78.56
2019-03-06T08:21:06.651Z,77.46
2019-03-06T08:24:00.980Z,78.43
2019-03-06T08:26:30.763Z,70.31
2019-03-06T08:29:00.538Z,69.97
2019-03-06T08:31:49.010Z,70.15
2019-03-06T08:34:18.671Z,72.95
2019-03-06T08:36:48.469Z,76.86
2019-03-06T08:39:23.011Z,74.19
2019-03-06T08:41:52.860Z,73.25
2019-03-06T08:44:22.455Z,67.47
2019-03-06T08:47:23.168Z,71.47
2019-03-06T08:50:01.716Z,74.71
2019-03-06T08:52:53.060Z,77.49
2019-03-06T08:55:44.402Z,77.50
2019-03-06T08:58:42.409Z,76.30
2019-03-06T09:01:43.477Z,72.01
2019-03-06T09:04:32.091Z,70.63
2019-03-06T09:07:19.889Z,72.02
2019-03-06T09:10:14.278Z,71.07
2019-03-06T09:13:05.444Z,67.50
2019-03-06T09:16:00.294Z,71.44
2019-03-06T09:18:48.997Z,72.32
2019-03-06T09:21:40.293Z,71.75
2019-03-06T09:24:35.096Z,74.53
2019-03-06T09:27:12.070Z,75.99
2019-03-06T09:29:57.375Z,73.63
2019-03-06T09:32:41.330Z,77.21
2019-03-06T09:35:29.383Z,76.61
2019-03-06T09:38:19.514Z,74.72
2019-03-06T09:41:26.160Z,79.99
2019-03-06T09:44:23.800Z,83.48
2019-03-06T09:47:15.358Z,81.47
2019-03-06T09:50:06.924Z,77.68
2019-03-06T09:52:57.148Z,74.30
2019-03-06T09:55:40.588Z,69.74
2019-03-06T09:58:31.902Z,71.37
2019-03-06T10:01:19.122Z,74.63
2019-03-06T10:04:07.702Z,74.88
2019-03-06T10:06:59.021Z,70.08
2019-03-06T10:09:37.137Z,70.99
2019-03-06T10:12:15.239Z,68.88
2019-03-06T10:15:01.835Z,68.67
2019-03-06T10:17:36.229Z,67.21
2019-03-06T10:20:09.452Z,67.53
2019-03-06T10:22:39.317Z,65.65
2019-03-06T10:25:09.077Z,62.50
2019-03-06T10:27:38.778Z,57.76
2019-03-06T10:30:12.131Z,54.92
2019-03-06T10:32:41.995Z,52.21
2019-03-06T10:35:12.927Z,52.60
2019-03-06T10:37:42.490Z,52.19
2019-03-06T10:40:15.197Z,53.50
2019-03-06T10:42:44.900Z,50.17
2019-03-06T10:45:15.692Z,50.26
2019-03-06T10:47:45.844Z,49.89
2019-03-06T10:50:26.022Z,49.85
2019-03-06T10:52:49.052Z,48.55
2019-03-06T10:55:19.254Z,49.65
2019-03-06T10:57:49.164Z,49.52
2019-03-06T11:00:26.963Z,49.05
2019-03-06T11:02:57.103Z,47.80
2019-03-06T11:05:31.631Z,47.24
2019-03-06T11:08:02.090Z,47.11
2019-03-06T11:10:39.538Z,48.29
2019-03-06T11:13:11.764Z,46.21
2019-03-06T11:15:42.006Z,45.12
2019-03-06T11:18:11.943Z,45.35
2019-03-06T11:20:42.005Z,45.38
2019-03-06T11:23:12.085Z,45.32
2019-03-06T11:25:42.077Z,44.52
2019-03-06T11:28:12.658Z,43.84
2019-03-06T11:30:46.507Z,42.32
2019-03-06T11:33:17.474Z,42.73
2019-03-06T11:35:47.505Z,44.35
2019-03-06T11:38:17.771Z,43.25
2019-03-06T11:40:47.484Z,43.37
2019-03-06T11:43:17.222Z,44.17
2019-03-06T11:45:47.343Z,44.28
2019-03-06T11:48:17.189Z,45.47
2019-03-06T11:50:47.386Z,44.03
2019-03-06T11:53:16.964Z,42.91
2019-03-06T11:55:46.822Z,43.04
2019-03-06T11:58:18.831Z,43.73
2019-03-06T12:00:48.843Z,41.15
2019-03-06T12:03:20.876Z,43.15
2019-03-06T12:05:51.031Z,42.27
2019-03-06T12:08:21.375Z,42.80
2019-03-06T12:10:52.353Z,42.40
2019-03-06T12:13:22.197Z,41.95
2019-03-06T12:15:52.452Z,42.71
2019-03-06T12:18:24.599Z,42.52
2019-03-06T12:20:55.445Z,42.00
2019-03-06T12:23:25.275Z,41.64
2019-03-06T12:25:54.985Z,42.15
2019-03-06T12:28:24.632Z,42.02
2019-03-06T12:30:54.347Z,42.64
2019-03-06T12:33:26.217Z,43.34
2019-03-06T12:35:55.810Z,42.86
2019-03-06T12:38:25.517Z,42.42
2019-03-06T12:40:55.304Z,42.35
2019-03-06T12:43:25.168Z,41.58
2019-03-06T12:46:23.835Z,42.12
2019-03-06T12:49:14.509Z,42.10
2019-03-06T12:51:44.203Z,42.78
2019-03-06T12:54:13.941Z,42.30
2019-03-06T12:56:43.548Z,42.97
2019-03-06T12:59:13.149Z,43.71
2019-03-06T13:01:42.833Z,40.75
2019-03-06T13:04:12.424Z,42.78
2019-03-06T13:06:42.076Z,40.31
2019-03-06T13:09:18.283Z,41.47
2019-03-06T13:11:48.375Z,39.72
2019-03-06T13:14:18.193Z,38.85
2019-03-06T13:16:47.843Z,37.64
2019-03-06T13:19:17.558Z,36.01
2019-03-06T13:21:47.176Z,35.99
2019-03-06T13:24:17.232Z,35.75
2019-03-06T13:26:47.188Z,35.90
2019-03-06T13:29:17.052Z,36.11
2019-03-06T13:31:46.729Z,36.19
2019-03-06T13:34:23.055Z,35.23
2019-03-06T13:36:52.702Z,34.51
2019-03-06T13:39:22.317Z,34.50
2019-03-06T13:41:52.110Z,34.79
2019-03-06T13:44:21.874Z,34.66
2019-03-06T13:46:51.477Z,34.57
2019-03-06T13:49:21.149Z,33.28
2019-03-06T13:51:50.933Z,31.84
2019-03-06T13:54:20.721Z,31.43
2019-03-06T13:56:51.844Z,30.57
2019-03-06T13:59:21.624Z,30.99
2019-03-06T14:01:51.276Z,31.82
2019-03-06T14:04:20.913Z,31.75
2019-03-06T14:06:50.611Z,30.45
2019-03-06T14:09:20.337Z,27.78
2019-03-06T14:11:50.319Z,27.77
2019-03-06T14:14:20.063Z,28.37
2019-03-06T14:16:49.667Z,28.49
2019-03-06T14:19:19.281Z,28.85
2019-03-06T14:21:49.081Z,28.65
2019-03-06T14:26:47.450Z,28.45
2019-03-06T14:29:18.511Z,28.61
2019-03-06T14:31:48.271Z,28.66
2019-03-06T14:34:18.019Z,28.32
2019-03-06T14:36:47.604Z,26.90
2019-03-06T14:39:29.200Z,26.72
2019-03-06T14:41:59.664Z,27.34
2019-03-06T14:44:29.432Z,28.09
2019-03-06T14:46:59.130Z,27.71
2019-03-06T14:49:30.402Z,27.66
2019-03-06T14:52:07.312Z,26.37
2019-03-06T14:54:31.993Z,26.11
2019-03-06T14:57:01.711Z,26.10
2019-03-06T14:59:31.378Z,26.70
2019-03-06T15:02:01.124Z,26.45
2019-03-06T15:04:31.042Z,27.01
2019-03-06T15:07:00.811Z,27.09
2019-03-06T15:09:30.885Z,27.16
2019-03-06T15:12:00.472Z,26.37
2019-03-06T15:14:36.175Z,26.58
2019-03-06T15:17:01.569Z,26.74
2019-03-06T15:19:31.289Z,27.07
2019-03-06T15:22:02.305Z,26.83
2019-03-06T15:24:40.719Z,26.95
2019-03-06T15:27:03.449Z,27.62
2019-03-06T15:29:33.356Z,27.70
2019-03-06T15:32:02.993Z,27.21
2019-03-06T15:34:32.676Z,27.35
2019-03-06T15:37:02.286Z,27.55
2019-03-06T15:39:46.714Z,27.98
2019-03-06T15:42:09.924Z,27.96
2019-03-06T15:44:39.784Z,28.27
2019-03-06T15:47:09.689Z,28.83
2019-03-06T15:49:39.343Z,28.66
2019-03-06T15:52:11.052Z,28.89
2019-03-06T15:54:40.848Z,29.27
2019-03-06T15:57:10.730Z,29.41
2019-03-06T15:59:40.685Z,28.17
2019-03-06T16:02:10.564Z,28.30
2019-03-06T16:04:40.302Z,28.24
2019-03-06T16:07:10.067Z,29.05
2019-03-06T16:09:39.995Z,30.42
2019-03-06T16:12:12.116Z,33.49
2019-03-06T16:14:41.483Z,30.77
2019-03-06T16:17:11.248Z,33.37
2019-03-06T16:19:40.943Z,32.31
2019-03-06T16:22:10.968Z,33.09
2019-03-06T16:24:40.720Z,30.49
2019-03-06T16:27:10.380Z,32.88
2019-03-06T16:29:39.962Z,31.08
2019-03-06T16:32:09.676Z,32.92
2019-03-06T16:34:39.465Z,33.66
2019-03-06T16:37:09.219Z,31.80
2019-03-06T16:39:38.847Z,30.16
2019-03-06T16:42:08.537Z,32.32
2019-03-06T16:44:38.336Z,31.16
2019-03-06T16:47:08.119Z,33.19
2019-03-06T16:49:38.171Z,30.48
2019-03-06T16:52:08.047Z,31.54
2019-03-06T16:54:37.840Z,31.13
2019-03-06T16:57:07.652Z,31.52
2019-03-06T16:59:37.608Z,32.46
2019-03-06T17:02:07.741Z,30.75
2019-03-06T17:04:37.520Z,29.45
2019-03-06T17:07:07.437Z,28.47
2019-03-06T17:09:37.162Z,32.02
2019-03-06T17:12:07.102Z,28.92
2019-03-06T17:14:36.836Z,30.24
2019-03-06T17:17:06.683Z,29.76
2019-03-06T17:19:36.363Z,32.59
2019-03-06T17:22:06.037Z,27.67
2019-03-06T17:24:35.698Z,31.20
2019-03-06T17:27:05.549Z,32.37
2019-03-06T17:29:35.206Z,31.57
2019-03-06T17:32:05.175Z,31.07
2019-03-06T17:34:34.980Z,31.53
2019-03-06T17:37:05.067Z,27.58
2019-03-06T17:39:34.711Z,29.99
2019-03-06T17:42:04.499Z,30.04
2019-03-06T17:44:34.319Z,29.33
2019-03-06T17:47:04.241Z,27.80
2019-03-06T17:49:35.003Z,28.74
2019-03-06T17:52:04.917Z,28.64
2019-03-06T17:54:34.690Z,29.66
2019-03-06T17:57:04.375Z,33.62
2019-03-06T17:59:34.146Z,29.62
2019-03-06T18:02:04.116Z,29.52
2019-03-06T18:04:34.398Z,29.65
2019-03-06T18:07:06.070Z,31.19
2019-03-06T18:09:35.941Z,30.66
2019-03-06T18:12:05.971Z,31.90
2019-03-06T18:14:35.653Z,31.04
2019-03-06T18:17:05.355Z,30.73
2019-03-06T18:19:35.090Z,30.92
2019-03-06T18:22:04.947Z,31.02
2019-03-06T18:24:34.654Z,29.79
2019-03-06T18:27:04.733Z,31.26
2019-03-06T18:29:34.652Z,31.63
2019-03-06T18:32:04.324Z,32.76
2019-03-06T18:34:33.965Z,36.28
2019-03-06T18:37:03.549Z,33.52
2019-03-06T18:39:33.362Z,33.46
2019-03-06T18:42:03.817Z,34.42
2019-03-06T18:44:33.413Z,34.57
2019-03-06T18:47:03.144Z,35.23
2019-03-06T18:49:32.793Z,36.37
2019-03-06T18:52:02.534Z,40.46
2019-03-06T18:54:32.559Z,39.40
2019-03-06T18:57:02.258Z,37.30
2019-03-06T18:59:31.871Z,40.35
2019-03-06T19:02:01.546Z,35.58
2019-03-06T19:04:31.265Z,35.91
2019-03-06T19:07:00.908Z,37.43
2019-03-06T19:09:30.654Z,40.00
2019-03-06T19:12:00.263Z,35.98
2019-03-06T19:14:29.982Z,36.56
2019-03-06T19:16:59.662Z,37.41
2019-03-06T19:19:29.536Z,39.20
2019-03-06T19:21:59.217Z,36.89
2019-03-06T19:24:28.941Z,37.79
2019-03-06T19:26:58.558Z,33.71
2019-03-06T19:29:28.266Z,34.07
2019-03-06T19:31:57.964Z,37.32
2019-03-06T19:34:27.731Z,39.08
2019-03-06T19:36:57.453Z,36.63
2019-03-06T19:39:27.038Z,38.15
2019-03-06T19:41:56.745Z,39.67
2019-03-06T19:44:26.402Z,40.75
2019-03-06T19:46:56.050Z,40.52
2019-03-06T19:49:25.628Z,36.21
2019-03-06T19:51:55.680Z,38.92
2019-03-06T19:54:25.346Z,39.46
2019-03-06T19:56:55.123Z,37.60
2019-03-06T19:59:24.780Z,38.36
2019-03-06T20:01:54.506Z,37.51
2019-03-06T20:04:25.684Z,37.31
2019-03-06T20:06:55.841Z,34.07
2019-03-06T20:09:28.354Z,34.36
2019-03-06T20:11:58.352Z,34.73
2019-03-06T20:14:28.307Z,34.66
2019-03-06T20:16:58.110Z,35.05
2019-03-06T20:19:28.253Z,34.77
2019-03-06T20:21:58.113Z,35.89
2019-03-06T20:24:28.520Z,35.64
2019-03-06T20:26:58.315Z,36.60
2019-03-06T20:29:28.090Z,38.87
2019-03-06T20:31:57.902Z,37.81
2019-03-06T20:34:27.524Z,38.87
2019-03-06T20:36:57.197Z,35.16
2019-03-06T20:39:26.799Z,33.89
2019-03-06T20:41:56.509Z,37.51
2019-03-06T20:44:26.274Z,36.49
2019-03-06T20:46:55.948Z,38.89
2019-03-06T20:49:25.555Z,35.71
2019-03-06T20:51:55.205Z,36.43
2019-03-06T20:54:24.883Z,34.51
2019-03-06T20:56:54.616Z,34.44
2019-03-06T20:59:24.340Z,35.48
2019-03-06T21:01:54.037Z,35.19
2019-03-06T21:04:23.675Z,35.39
2019-03-06T21:06:53.275Z,36.65
2019-03-06T21:09:23.088Z,37.53
2019-03-06T21:11:52.865Z,34.61
2019-03-06T21:14:22.527Z,34.46
2019-03-06T21:16:52.462Z,35.37
2019-03-06T21:19:22.237Z,37.42
2019-03-06T21:21:51.987Z,35.17
2019-03-06T21:24:21.815Z,37.14
2019-03-06T21:26:51.597Z,36.63
2019-03-06T21:29:21.329Z,37.98
2019-03-06T21:31:51.145Z,39.33
2019-03-06T21:34:20.941Z,36.19
2019-03-06T21:36:50.571Z,36.12
2019-03-06T21:39:29.820Z,38.95
2019-03-06T21:41:59.569Z,39.07
2019-03-06T21:44:29.662Z,39.59
2019-03-06T21:46:59.324Z,39.33
2019-03-06T21:49:29.114Z,37.45
2019-03-06T21:51:58.889Z,38.89
2019-03-06T21:54:28.622Z,38.25
2019-03-06T21:56:58.225Z,37.17
2019-03-06T21:59:27.861Z,41.12
2019-03-06T22:01:57.544Z,40.59
2019-03-06T22:04:27.219Z,41.79
2019-03-06T22:06:57.155Z,38.90
2019-03-06T22:09:26.837Z,41.62
2019-03-06T22:11:56.466Z,37.45
2019-03-06T22:14:26.334Z,41.22
2019-03-06T22:16:56.105Z,39.04
2019-03-06T22:19:26.650Z,39.04
2019-03-06T22:21:56.476Z,42.32
2019-03-06T22:24:26.168Z,43.74
2019-03-06T22:26:55.971Z,42.76
2019-03-06T22:29:25.612Z,42.95
2019-03-06T22:31:55.273Z,42.58
2019-03-06T22:34:25.238Z,42.57
2019-03-06T22:36:54.869Z,42.36
2019-03-06T22:39:24.604Z,42.58
2019-03-06T22:41:54.245Z,41.22
2019-03-06T22:44:23.977Z,41.88
2019-03-06T22:46:53.636Z,42.44
2019-03-06T22:49:23.512Z,39.67
2019-03-06T22:51:53.283Z,40.31
2019-03-06T22:54:23.142Z,40.61
2019-03-06T22:56:52.881Z,44.06
2019-03-06T22:59:22.559Z,39.33
2019-03-06T23:01:53.327Z,39.32
2019-03-06T23:04:23.141Z,38.28
2019-03-06T23:06:52.841Z,40.65
2019-03-06T23:09:22.588Z,36.91
2019-03-06T23:11:52.393Z,37.26
2019-03-06T23:14:22.033Z,44.27
2019-03-06T23:16:52.114Z,46.62
2019-03-06T23:19:21.814Z,48.60
2019-03-06T23:21:51.477Z,49.93
2019-03-06T23:24:21.087Z,51.09
2019-03-06T23:26:50.851Z,49.45
2019-03-06T23:29:20.798Z,48.07
2019-03-06T23:31:50.658Z,46.68
2019-03-06T23:34:20.387Z,46.30
2019-03-06T23:36:50.068Z,49.05
2019-03-06T23:39:19.713Z,48.39
2019-03-06T23:41:49.524Z,47.82
2019-03-06T23:44:19.388Z,50.03
2019-03-06T23:46:49.181Z,48.10
2019-03-06T23:49:18.937Z,47.58
2019-03-06T23:51:57.687Z,48.07
2019-03-06T23:54:27.291Z,45.87
2019-03-06T23:56:57.187Z,45.00
2019-03-06T23:59:26.928Z,45.04
